sensor_id;sensor_type;location;lat;lon;timestamp;P1;durP1;ratioP1;P2;durP2;ratioP2
21014;SDS011;19207;-23.482;-46.500;2023-08-06T00:01:19;45.75;;;23.87;;
21014;SDS011;19207;-23.482;-46.500;2023-08-06T00:04:08;45.60;;;23.83;;
21014;SDS011;19207;-23.482;-46.500;2023-08-06T00:06:55;45.53;;;23.73;;
21014;SDS011;19207;-23.482;-46.500;2023-08-06T00:09:42;47.05;;;25.33;;
21014;SDS011;19207;-23.482;-46.500;2023-08-06T00:12:29;50.58;;;25.80;;
21014;SDS011;19207;-23.482;-46.500;2023-08-06T00:15:16;49.40;;;26.63;;
21014;SDS011;19207;-23.482;-46.500;2023-08-06T00:18:03;46.35;;;27.37;;
21014;SDS011;19207;-23.482;-46.500;2023-08-06T00:20:50;51.20;;;28.08;;
21014;SDS011;19207;-23.482;-46.500;2023-08-06T00:23:37;51.10;;;27.87;;
21014;SDS011;19207;-23.482;-46.500;2023-08-06T00:26:23;56.37;;;30.62;;
21014;SDS011;19207;-23.482;-46.500;2023-08-06T00:29:10;57.17;;;30.23;;
21014;SDS011;19207;-23.482;-46.500;2023-08-06T00:31:57;64.67;;;30.87;;
21014;SDS011;19207;-23.482;-46.500;2023-08-06T00:34:45;63.90;;;32.33;;
21014;SDS011;19207;-23.482;-46.500;2023-08-06T00:37:32;74.28;;;39.40;;
21014;SDS011;19207;-23.482;-46.500;2023-08-06T00:40:20;72.53;;;38.20;;
21014;SDS011;19207;-23.482;-46.500;2023-08-06T00:43:07;66.15;;;34.25;;
21014;SDS011;19207;-23.482;-46.500;2023-08-06T00:45:54;69.72;;;35.85;;
21014;SDS011;19207;-23.482;-46.500;2023-08-06T00:48:41;72.37;;;36.92;;
21014;SDS011;19207;-23.482;-46.500;2023-08-06T00:51:28;69.80;;;34.70;;
21014;SDS011;19207;-23.482;-46.500;2023-08-06T00:54:15;64.22;;;34.72;;
21014;SDS011;19207;-23.482;-46.500;2023-08-06T00:57:03;76.47;;;39.13;;
21014;SDS011;19207;-23.482;-46.500;2023-08-06T00:59:50;80.78;;;42.28;;
21014;SDS011;19207;-23.482;-46.500;2023-08-06T01:02:37;90.33;;;44.87;;
21014;SDS011;19207;-23.482;-46.500;2023-08-06T01:05:24;81.87;;;41.83;;
21014;SDS011;19207;-23.482;-46.500;2023-08-06T01:14:07;102.57;;;51.70;;
21014;SDS011;19207;-23.482;-46.500;2023-08-06T01:16:54;113.90;;;60.50;;
21014;SDS011;19207;-23.482;-46.500;2023-08-06T01:19:42;217.48;;;129.10;;
21014;SDS011;19207;-23.482;-46.500;2023-08-06T01:22:29;265.95;;;155.90;;
21014;SDS011;19207;-23.482;-46.500;2023-08-06T01:25:16;262.30;;;153.98;;
21014;SDS011;19207;-23.482;-46.500;2023-08-06T01:30:50;243.07;;;141.17;;
21014;SDS011;19207;-23.482;-46.500;2023-08-06T01:33:38;154.00;;;78.50;;
21014;SDS011;19207;-23.482;-46.500;2023-08-06T01:36:30;196.90;;;92.97;;
21014;SDS011;19207;-23.482;-46.500;2023-08-06T01:39:18;287.67;;;145.80;;
21014;SDS011;19207;-23.482;-46.500;2023-08-06T01:42:08;309.35;;;172.05;;
21014;SDS011;19207;-23.482;-46.500;2023-08-06T01:44:55;360.27;;;202.30;;
21014;SDS011;19207;-23.482;-46.500;2023-08-06T01:47:42;299.15;;;161.60;;
21014;SDS011;19207;-23.482;-46.500;2023-08-06T01:50:29;183.90;;;91.93;;
21014;SDS011;19207;-23.482;-46.500;2023-08-06T01:53:16;165.43;;;85.65;;
21014;SDS011;19207;-23.482;-46.500;2023-08-06T01:56:03;154.35;;;71.20;;
21014;SDS011;19207;-23.482;-46.500;2023-08-06T01:58:50;163.40;;;70.35;;
21014;SDS011;19207;-23.482;-46.500;2023-08-06T02:01:37;165.70;;;78.47;;
21014;SDS011;19207;-23.482;-46.500;2023-08-06T02:04:23;177.45;;;78.82;;
21014;SDS011;19207;-23.482;-46.500;2023-08-06T02:07:11;168.77;;;80.00;;
21014;SDS011;19207;-23.482;-46.500;2023-08-06T02:09:58;160.15;;;75.95;;
21014;SDS011;19207;-23.482;-46.500;2023-08-06T02:12:44;170.15;;;77.70;;
21014;SDS011;19207;-23.482;-46.500;2023-08-06T02:15:31;157.85;;;66.47;;
21014;SDS011;19207;-23.482;-46.500;2023-08-06T02:18:18;144.52;;;65.07;;
21014;SDS011;19207;-23.482;-46.500;2023-08-06T02:21:05;176.65;;;81.00;;
21014;SDS011;19207;-23.482;-46.500;2023-08-06T02:23:52;152.40;;;67.28;;
21014;SDS011;19207;-23.482;-46.500;2023-08-06T02:26:39;152.90;;;66.97;;
21014;SDS011;19207;-23.482;-46.500;2023-08-06T02:29:26;154.18;;;67.25;;
21014;SDS011;19207;-23.482;-46.500;2023-08-06T02:32:12;170.75;;;69.85;;
21014;SDS011;19207;-23.482;-46.500;2023-08-06T02:34:59;181.15;;;74.55;;
21014;SDS011;19207;-23.482;-46.500;2023-08-06T02:37:46;161.93;;;68.57;;
21014;SDS011;19207;-23.482;-46.500;2023-08-06T02:40:33;162.02;;;69.75;;
21014;SDS011;19207;-23.482;-46.500;2023-08-06T02:43:20;122.70;;;57.25;;
21014;SDS011;19207;-23.482;-46.500;2023-08-06T02:46:07;138.77;;;59.30;;
21014;SDS011;19207;-23.482;-46.500;2023-08-06T02:48:53;134.73;;;60.72;;
21014;SDS011;19207;-23.482;-46.500;2023-08-06T02:51:41;157.05;;;71.87;;
21014;SDS011;19207;-23.482;-46.500;2023-08-06T02:54:28;153.48;;;69.70;;
21014;SDS011;19207;-23.482;-46.500;2023-08-06T02:57:14;139.57;;;64.87;;
21014;SDS011;19207;-23.482;-46.500;2023-08-06T03:00:01;138.50;;;65.35;;
21014;SDS011;19207;-23.482;-46.500;2023-08-06T03:02:48;129.50;;;60.15;;
21014;SDS011;19207;-23.482;-46.500;2023-08-06T03:05:34;139.95;;;61.90;;
21014;SDS011;19207;-23.482;-46.500;2023-08-06T03:08:22;129.95;;;61.67;;
21014;SDS011;19207;-23.482;-46.500;2023-08-06T03:11:09;117.35;;;55.85;;
21014;SDS011;19207;-23.482;-46.500;2023-08-06T03:13:56;117.45;;;54.05;;
21014;SDS011;19207;-23.482;-46.500;2023-08-06T03:16:43;216.12;;;87.45;;
21014;SDS011;19207;-23.482;-46.500;2023-08-06T03:19:30;212.27;;;81.35;;
21014;SDS011;19207;-23.482;-46.500;2023-08-06T03:22:18;259.48;;;99.55;;
21014;SDS011;19207;-23.482;-46.500;2023-08-06T03:25:05;226.02;;;93.62;;
21014;SDS011;19207;-23.482;-46.500;2023-08-06T03:27:51;262.23;;;94.93;;
21014;SDS011;19207;-23.482;-46.500;2023-08-06T03:30:39;268.80;;;99.43;;
21014;SDS011;19207;-23.482;-46.500;2023-08-06T03:33:26;259.77;;;97.00;;
21014;SDS011;19207;-23.482;-46.500;2023-08-06T03:36:13;248.13;;;93.90;;
21014;SDS011;19207;-23.482;-46.500;2023-08-06T03:39:00;227.55;;;89.62;;
21014;SDS011;19207;-23.482;-46.500;2023-08-06T03:41:47;279.55;;;101.25;;
21014;SDS011;19207;-23.482;-46.500;2023-08-06T03:44:34;185.75;;;78.12;;
21014;SDS011;19207;-23.482;-46.500;2023-08-06T03:47:21;208.25;;;78.47;;
21014;SDS011;19207;-23.482;-46.500;2023-08-06T03:50:08;199.95;;;79.00;;
21014;SDS011;19207;-23.482;-46.500;2023-08-06T03:52:55;224.32;;;82.82;;
21014;SDS011;19207;-23.482;-46.500;2023-08-06T03:55:42;274.75;;;97.68;;
21014;SDS011;19207;-23.482;-46.500;2023-08-06T03:58:29;218.77;;;85.38;;
21014;SDS011;19207;-23.482;-46.500;2023-08-06T04:01:17;203.73;;;77.25;;
21014;SDS011;19207;-23.482;-46.500;2023-08-06T04:04:03;250.93;;;96.03;;
21014;SDS011;19207;-23.482;-46.500;2023-08-06T04:06:50;252.43;;;91.75;;
21014;SDS011;19207;-23.482;-46.500;2023-08-06T04:12:59;186.98;;;77.18;;
21014;SDS011;19207;-23.482;-46.500;2023-08-06T04:15:46;163.65;;;66.82;;
21014;SDS011;19207;-23.482;-46.500;2023-08-06T04:18:33;151.45;;;66.32;;
21014;SDS011;19207;-23.482;-46.500;2023-08-06T04:21:20;159.07;;;64.32;;
21014;SDS011;19207;-23.482;-46.500;2023-08-06T04:24:07;163.27;;;64.62;;
21014;SDS011;19207;-23.482;-46.500;2023-08-06T04:26:54;149.27;;;63.95;;
21014;SDS011;19207;-23.482;-46.500;2023-08-06T04:29:41;166.98;;;66.55;;
21014;SDS011;19207;-23.482;-46.500;2023-08-06T04:32:28;165.15;;;69.90;;
21014;SDS011;19207;-23.482;-46.500;2023-08-06T04:35:16;163.98;;;66.30;;
21014;SDS011;19207;-23.482;-46.500;2023-08-06T04:38:03;158.35;;;62.20;;
21014;SDS011;19207;-23.482;-46.500;2023-08-06T04:40:51;147.35;;;62.72;;
21014;SDS011;19207;-23.482;-46.500;2023-08-06T04:43:37;145.25;;;64.32;;
21014;SDS011;19207;-23.482;-46.500;2023-08-06T04:46:24;162.90;;;66.68;;
21014;SDS011;19207;-23.482;-46.500;2023-08-06T04:49:11;155.12;;;65.45;;
21014;SDS011;19207;-23.482;-46.500;2023-08-06T04:51:58;171.25;;;65.55;;
21014;SDS011;19207;-23.482;-46.500;2023-08-06T04:54:44;155.82;;;64.35;;
21014;SDS011;19207;-23.482;-46.500;2023-08-06T04:57:31;172.50;;;62.47;;
21014;SDS011;19207;-23.482;-46.500;2023-08-06T05:00:18;148.55;;;60.88;;
21014;SDS011;19207;-23.482;-46.500;2023-08-06T05:03:06;145.68;;;61.05;;
21014;SDS011;19207;-23.482;-46.500;2023-08-06T05:05:52;162.95;;;67.25;;
21014;SDS011;19207;-23.482;-46.500;2023-08-06T05:08:39;143.45;;;62.45;;
21014;SDS011;19207;-23.482;-46.500;2023-08-06T05:11:27;154.05;;;64.22;;
21014;SDS011;19207;-23.482;-46.500;2023-08-06T05:14:14;159.00;;;65.07;;
21014;SDS011;19207;-23.482;-46.500;2023-08-06T05:17:00;177.18;;;68.22;;
21014;SDS011;19207;-23.482;-46.500;2023-08-06T05:19:49;171.98;;;66.30;;
21014;SDS011;19207;-23.482;-46.500;2023-08-06T05:22:36;161.75;;;65.93;;
21014;SDS011;19207;-23.482;-46.500;2023-08-06T05:25:24;154.18;;;65.47;;
21014;SDS011;19207;-23.482;-46.500;2023-08-06T05:28:11;158.45;;;65.78;;
21014;SDS011;19207;-23.482;-46.500;2023-08-06T05:30:58;162.48;;;65.07;;
21014;SDS011;19207;-23.482;-46.500;2023-08-06T05:33:45;151.07;;;65.75;;
21014;SDS011;19207;-23.482;-46.500;2023-08-06T05:36:32;150.85;;;65.00;;
21014;SDS011;19207;-23.482;-46.500;2023-08-06T05:39:19;161.10;;;67.00;;
21014;SDS011;19207;-23.482;-46.500;2023-08-06T05:42:06;161.93;;;68.15;;
21014;SDS011;19207;-23.482;-46.500;2023-08-06T05:44:53;176.07;;;66.15;;
21014;SDS011;19207;-23.482;-46.500;2023-08-06T05:47:40;154.30;;;63.42;;
21014;SDS011;19207;-23.482;-46.500;2023-08-06T05:50:26;147.60;;;63.90;;
21014;SDS011;19207;-23.482;-46.500;2023-08-06T05:53:13;152.60;;;66.72;;
21014;SDS011;19207;-23.482;-46.500;2023-08-06T05:56:00;161.82;;;67.53;;
21014;SDS011;19207;-23.482;-46.500;2023-08-06T05:58:47;149.57;;;63.95;;
21014;SDS011;19207;-23.482;-46.500;2023-08-06T06:01:36;165.55;;;67.15;;
21014;SDS011;19207;-23.482;-46.500;2023-08-06T06:04:24;159.70;;;68.85;;
21014;SDS011;19207;-23.482;-46.500;2023-08-06T06:07:11;167.23;;;70.30;;
21014;SDS011;19207;-23.482;-46.500;2023-08-06T06:09:59;166.37;;;69.32;;
21014;SDS011;19207;-23.482;-46.500;2023-08-06T06:12:46;172.68;;;73.55;;
21014;SDS011;19207;-23.482;-46.500;2023-08-06T06:15:33;165.60;;;74.75;;
21014;SDS011;19207;-23.482;-46.500;2023-08-06T06:18:20;184.77;;;76.87;;
21014;SDS011;19207;-23.482;-46.500;2023-08-06T06:21:06;182.15;;;77.57;;
21014;SDS011;19207;-23.482;-46.500;2023-08-06T06:23:54;180.50;;;80.10;;
21014;SDS011;19207;-23.482;-46.500;2023-08-06T06:26:42;198.40;;;81.25;;
21014;SDS011;19207;-23.482;-46.500;2023-08-06T06:29:29;193.02;;;81.87;;
21014;SDS011;19207;-23.482;-46.500;2023-08-06T06:32:16;196.07;;;83.70;;
21014;SDS011;19207;-23.482;-46.500;2023-08-06T06:35:03;186.25;;;80.78;;
21014;SDS011;19207;-23.482;-46.500;2023-08-06T06:37:51;202.98;;;86.37;;
21014;SDS011;19207;-23.482;-46.500;2023-08-06T06:40:37;186.85;;;82.47;;
21014;SDS011;19207;-23.482;-46.500;2023-08-06T06:43:25;187.88;;;83.47;;
21014;SDS011;19207;-23.482;-46.500;2023-08-06T06:46:12;211.18;;;87.30;;
21014;SDS011;19207;-23.482;-46.500;2023-08-06T06:48:59;202.40;;;89.10;;
21014;SDS011;19207;-23.482;-46.500;2023-08-06T06:51:46;222.25;;;92.70;;
21014;SDS011;19207;-23.482;-46.500;2023-08-06T06:54:33;229.35;;;103.07;;
21014;SDS011;19207;-23.482;-46.500;2023-08-06T06:57:20;250.68;;;107.95;;
21014;SDS011;19207;-23.482;-46.500;2023-08-06T07:00:07;268.75;;;117.22;;
21014;SDS011;19207;-23.482;-46.500;2023-08-06T07:02:54;291.73;;;126.62;;
21014;SDS011;19207;-23.482;-46.500;2023-08-06T07:05:41;262.92;;;116.95;;
21014;SDS011;19207;-23.482;-46.500;2023-08-06T07:08:29;320.75;;;142.73;;
21014;SDS011;19207;-23.482;-46.500;2023-08-06T07:11:16;287.23;;;123.72;;
21014;SDS011;19207;-23.482;-46.500;2023-08-06T07:14:03;264.08;;;114.15;;
21014;SDS011;19207;-23.482;-46.500;2023-08-06T07:16:50;264.33;;;114.12;;
21014;SDS011;19207;-23.482;-46.500;2023-08-06T07:19:36;259.35;;;114.07;;
21014;SDS011;19207;-23.482;-46.500;2023-08-06T07:22:24;259.10;;;110.93;;
21014;SDS011;19207;-23.482;-46.500;2023-08-06T07:25:10;247.90;;;108.80;;
21014;SDS011;19207;-23.482;-46.500;2023-08-06T07:27:58;261.02;;;105.75;;
21014;SDS011;19207;-23.482;-46.500;2023-08-06T07:30:47;232.57;;;100.93;;
21014;SDS011;19207;-23.482;-46.500;2023-08-06T07:33:34;253.55;;;103.75;;
21014;SDS011;19207;-23.482;-46.500;2023-08-06T07:36:21;242.15;;;100.20;;
21014;SDS011;19207;-23.482;-46.500;2023-08-06T07:39:08;262.88;;;102.87;;
21014;SDS011;19207;-23.482;-46.500;2023-08-06T07:41:55;253.15;;;100.82;;
21014;SDS011;19207;-23.482;-46.500;2023-08-06T07:44:42;249.43;;;100.80;;
21014;SDS011;19207;-23.482;-46.500;2023-08-06T07:47:29;286.73;;;105.35;;
21014;SDS011;19207;-23.482;-46.500;2023-08-06T07:50:16;265.75;;;105.25;;
21014;SDS011;19207;-23.482;-46.500;2023-08-06T07:53:03;289.77;;;103.95;;
21014;SDS011;19207;-23.482;-46.500;2023-08-06T07:55:50;275.65;;;98.93;;
21014;SDS011;19207;-23.482;-46.500;2023-08-06T07:58:37;261.60;;;93.10;;
21014;SDS011;19207;-23.482;-46.500;2023-08-06T08:01:25;273.33;;;94.45;;
21014;SDS011;19207;-23.482;-46.500;2023-08-06T08:04:12;269.83;;;91.90;;
21014;SDS011;19207;-23.482;-46.500;2023-08-06T08:06:59;260.38;;;89.30;;
21014;SDS011;19207;-23.482;-46.500;2023-08-06T08:09:46;272.25;;;91.87;;
21014;SDS011;19207;-23.482;-46.500;2023-08-06T08:12:34;260.20;;;88.47;;
21014;SDS011;19207;-23.482;-46.500;2023-08-06T08:15:21;281.87;;;97.40;;
21014;SDS011;19207;-23.482;-46.500;2023-08-06T08:18:08;289.25;;;108.43;;
21014;SDS011;19207;-23.482;-46.500;2023-08-06T08:20:55;270.40;;;105.90;;
21014;SDS011;19207;-23.482;-46.500;2023-08-06T08:23:42;283.80;;;96.97;;
21014;SDS011;19207;-23.482;-46.500;2023-08-06T08:26:30;259.92;;;90.90;;
21014;SDS011;19207;-23.482;-46.500;2023-08-06T08:29:19;276.35;;;90.20;;
21014;SDS011;19207;-23.482;-46.500;2023-08-06T08:32:06;256.80;;;85.70;;
21014;SDS011;19207;-23.482;-46.500;2023-08-06T08:34:54;247.50;;;86.20;;
21014;SDS011;19207;-23.482;-46.500;2023-08-06T08:37:40;263.27;;;88.15;;
21014;SDS011;19207;-23.482;-46.500;2023-08-06T08:40:31;286.67;;;97.88;;
21014;SDS011;19207;-23.482;-46.500;2023-08-06T08:43:19;290.35;;;101.75;;
21014;SDS011;19207;-23.482;-46.500;2023-08-06T08:46:08;306.73;;;111.32;;
21014;SDS011;19207;-23.482;-46.500;2023-08-06T08:48:55;342.55;;;118.03;;
21014;SDS011;19207;-23.482;-46.500;2023-08-06T08:51:43;349.50;;;115.40;;
21014;SDS011;19207;-23.482;-46.500;2023-08-06T08:54:31;298.02;;;102.32;;
21014;SDS011;19207;-23.482;-46.500;2023-08-06T08:57:19;255.80;;;91.70;;
21014;SDS011;19207;-23.482;-46.500;2023-08-06T09:00:07;258.48;;;91.03;;
21014;SDS011;19207;-23.482;-46.500;2023-08-06T09:02:54;255.05;;;87.72;;
21014;SDS011;19207;-23.482;-46.500;2023-08-06T09:05:43;265.17;;;93.18;;
21014;SDS011;19207;-23.482;-46.500;2023-08-06T09:08:34;287.80;;;96.22;;
21014;SDS011;19207;-23.482;-46.500;2023-08-06T09:11:23;280.42;;;104.00;;
21014;SDS011;19207;-23.482;-46.500;2023-08-06T09:14:11;267.67;;;94.75;;
21014;SDS011;19207;-23.482;-46.500;2023-08-06T09:16:58;255.05;;;95.50;;
21014;SDS011;19207;-23.482;-46.500;2023-08-06T09:19:46;265.70;;;94.78;;
21014;SDS011;19207;-23.482;-46.500;2023-08-06T09:22:35;256.67;;;98.00;;
21014;SDS011;19207;-23.482;-46.500;2023-08-06T09:25:22;232.00;;;85.72;;
21014;SDS011;19207;-23.482;-46.500;2023-08-06T09:28:10;220.20;;;88.22;;
21014;SDS011;19207;-23.482;-46.500;2023-08-06T09:30:59;230.98;;;88.82;;
21014;SDS011;19207;-23.482;-46.500;2023-08-06T09:33:46;214.07;;;85.60;;
21014;SDS011;19207;-23.482;-46.500;2023-08-06T09:36:35;194.20;;;76.75;;
21014;SDS011;19207;-23.482;-46.500;2023-08-06T09:39:29;206.20;;;87.72;;
21014;SDS011;19207;-23.482;-46.500;2023-08-06T09:42:16;217.43;;;94.60;;
21014;SDS011;19207;-23.482;-46.500;2023-08-06T09:45:06;257.50;;;101.65;;
21014;SDS011;19207;-23.482;-46.500;2023-08-06T09:47:57;219.25;;;100.80;;
21014;SDS011;19207;-23.482;-46.500;2023-08-06T09:50:44;224.37;;;100.97;;
21014;SDS011;19207;-23.482;-46.500;2023-08-06T09:53:33;241.25;;;108.10;;
21014;SDS011;19207;-23.482;-46.500;2023-08-06T09:56:21;246.15;;;108.75;;
21014;SDS011;19207;-23.482;-46.500;2023-08-06T09:59:11;231.95;;;106.95;;
21014;SDS011;19207;-23.482;-46.500;2023-08-06T10:01:58;236.73;;;105.78;;
21014;SDS011;19207;-23.482;-46.500;2023-08-06T10:04:46;196.12;;;88.10;;
21014;SDS011;19207;-23.482;-46.500;2023-08-06T10:07:33;243.20;;;109.43;;
21014;SDS011;19207;-23.482;-46.500;2023-08-06T10:10:21;246.05;;;107.85;;
21014;SDS011;19207;-23.482;-46.500;2023-08-06T10:13:08;277.65;;;118.65;;
21014;SDS011;19207;-23.482;-46.500;2023-08-06T10:15:55;296.15;;;133.07;;
21014;SDS011;19207;-23.482;-46.500;2023-08-06T10:18:42;244.45;;;111.85;;
21014;SDS011;19207;-23.482;-46.500;2023-08-06T10:21:30;209.35;;;95.18;;
21014;SDS011;19207;-23.482;-46.500;2023-08-06T10:24:17;178.98;;;77.30;;
21014;SDS011;19207;-23.482;-46.500;2023-08-06T10:27:04;153.05;;;67.85;;
21014;SDS011;19207;-23.482;-46.500;2023-08-06T10:29:52;142.68;;;61.80;;
21014;SDS011;19207;-23.482;-46.500;2023-08-06T10:32:47;130.57;;;56.85;;
21014;SDS011;19207;-23.482;-46.500;2023-08-06T10:35:41;155.18;;;57.78;;
21014;SDS011;19207;-23.482;-46.500;2023-08-06T10:38:35;127.70;;;57.72;;
21014;SDS011;19207;-23.482;-46.500;2023-08-06T10:41:28;139.02;;;60.75;;
21014;SDS011;19207;-23.482;-46.500;2023-08-06T10:44:16;120.78;;;57.00;;
21014;SDS011;19207;-23.482;-46.500;2023-08-06T10:47:46;129.40;;;54.22;;
21014;SDS011;19207;-23.482;-46.500;2023-08-06T10:50:15;98.20;;;48.22;;
21014;SDS011;19207;-23.482;-46.500;2023-08-06T10:53:05;97.45;;;46.05;;
21014;SDS011;19207;-23.482;-46.500;2023-08-06T10:55:53;92.95;;;44.85;;
21014;SDS011;19207;-23.482;-46.500;2023-08-06T10:58:40;104.50;;;48.87;;
21014;SDS011;19207;-23.482;-46.500;2023-08-06T11:01:28;92.60;;;45.95;;
21014;SDS011;19207;-23.482;-46.500;2023-08-06T11:04:18;102.15;;;49.40;;
21014;SDS011;19207;-23.482;-46.500;2023-08-06T11:07:06;104.03;;;46.72;;
21014;SDS011;19207;-23.482;-46.500;2023-08-06T11:10:00;100.00;;;51.22;;
21014;SDS011;19207;-23.482;-46.500;2023-08-06T11:12:47;90.05;;;43.63;;
21014;SDS011;19207;-23.482;-46.500;2023-08-06T11:15:34;85.45;;;44.05;;
21014;SDS011;19207;-23.482;-46.500;2023-08-06T11:21:33;91.12;;;41.53;;
21014;SDS011;19207;-23.482;-46.500;2023-08-06T11:24:20;83.72;;;40.53;;
21014;SDS011;19207;-23.482;-46.500;2023-08-06T11:27:13;92.80;;;41.97;;
21014;SDS011;19207;-23.482;-46.500;2023-08-06T11:30:00;82.28;;;39.65;;
21014;SDS011;19207;-23.482;-46.500;2023-08-06T11:32:48;79.50;;;38.47;;
21014;SDS011;19207;-23.482;-46.500;2023-08-06T11:35:35;82.47;;;40.85;;
21014;SDS011;19207;-23.482;-46.500;2023-08-06T11:38:26;88.37;;;40.60;;
21014;SDS011;19207;-23.482;-46.500;2023-08-06T11:41:13;78.32;;;39.92;;
21014;SDS011;19207;-23.482;-46.500;2023-08-06T11:44:00;91.25;;;39.58;;
21014;SDS011;19207;-23.482;-46.500;2023-08-06T11:46:52;78.80;;;38.97;;
21014;SDS011;19207;-23.482;-46.500;2023-08-06T11:52:32;90.45;;;41.53;;
21014;SDS011;19207;-23.482;-46.500;2023-08-06T11:55:19;69.20;;;35.50;;
21014;SDS011;19207;-23.482;-46.500;2023-08-06T11:58:10;63.58;;;30.85;;
21014;SDS011;19207;-23.482;-46.500;2023-08-06T12:01:00;65.65;;;30.05;;
21014;SDS011;19207;-23.482;-46.500;2023-08-06T12:03:47;56.55;;;27.40;;
21014;SDS011;19207;-23.482;-46.500;2023-08-06T12:06:41;53.20;;;25.77;;
21014;SDS011;19207;-23.482;-46.500;2023-08-06T12:09:29;45.00;;;22.58;;
21014;SDS011;19207;-23.482;-46.500;2023-08-06T12:12:16;43.65;;;21.62;;
21014;SDS011;19207;-23.482;-46.500;2023-08-06T12:15:04;39.30;;;21.25;;
21014;SDS011;19207;-23.482;-46.500;2023-08-06T12:17:54;42.00;;;20.80;;
21014;SDS011;19207;-23.482;-46.500;2023-08-06T12:20:41;46.33;;;21.33;;
21014;SDS011;19207;-23.482;-46.500;2023-08-06T12:23:28;43.70;;;21.08;;
21014;SDS011;19207;-23.482;-46.500;2023-08-06T12:26:18;41.63;;;20.98;;
21014;SDS011;19207;-23.482;-46.500;2023-08-06T12:29:05;39.53;;;20.62;;
21014;SDS011;19207;-23.482;-46.500;2023-08-06T12:31:52;35.00;;;20.23;;
21014;SDS011;19207;-23.482;-46.500;2023-08-06T12:34:40;42.03;;;20.58;;
21014;SDS011;19207;-23.482;-46.500;2023-08-06T12:37:27;42.97;;;21.92;;
21014;SDS011;19207;-23.482;-46.500;2023-08-06T12:40:14;36.15;;;20.48;;
21014;SDS011;19207;-23.482;-46.500;2023-08-06T12:43:01;36.63;;;19.95;;
21014;SDS011;19207;-23.482;-46.500;2023-08-06T12:45:48;40.42;;;21.08;;
21014;SDS011;19207;-23.482;-46.500;2023-08-06T12:48:35;38.35;;;21.52;;
21014;SDS011;19207;-23.482;-46.500;2023-08-06T12:51:21;41.35;;;20.48;;
21014;SDS011;19207;-23.482;-46.500;2023-08-06T12:54:08;43.03;;;21.37;;
21014;SDS011;19207;-23.482;-46.500;2023-08-06T12:56:55;46.80;;;21.70;;
21014;SDS011;19207;-23.482;-46.500;2023-08-06T12:59:42;38.80;;;21.75;;
21014;SDS011;19207;-23.482;-46.500;2023-08-06T13:02:29;40.40;;;21.92;;
21014;SDS011;19207;-23.482;-46.500;2023-08-06T13:05:16;40.00;;;20.88;;
21014;SDS011;19207;-23.482;-46.500;2023-08-06T13:08:03;41.92;;;20.55;;
21014;SDS011;19207;-23.482;-46.500;2023-08-06T13:10:50;34.60;;;20.42;;
21014;SDS011;19207;-23.482;-46.500;2023-08-06T13:13:36;32.67;;;20.12;;
21014;SDS011;19207;-23.482;-46.500;2023-08-06T13:16:23;45.55;;;19.60;;
21014;SDS011;19207;-23.482;-46.500;2023-08-06T13:19:10;36.08;;;20.05;;
21014;SDS011;19207;-23.482;-46.500;2023-08-06T13:24:46;37.67;;;19.95;;
21014;SDS011;19207;-23.482;-46.500;2023-08-06T13:27:33;35.28;;;19.15;;
21014;SDS011;19207;-23.482;-46.500;2023-08-06T13:30:19;33.50;;;19.40;;
21014;SDS011;19207;-23.482;-46.500;2023-08-06T13:33:08;38.22;;;20.35;;
21014;SDS011;19207;-23.482;-46.500;2023-08-06T13:35:57;33.47;;;18.52;;
21014;SDS011;19207;-23.482;-46.500;2023-08-06T13:38:43;33.22;;;17.12;;
21014;SDS011;19207;-23.482;-46.500;2023-08-06T13:41:30;32.42;;;17.98;;
21014;SDS011;19207;-23.482;-46.500;2023-08-06T13:44:17;30.80;;;17.20;;
21014;SDS011;19207;-23.482;-46.500;2023-08-06T13:47:04;30.25;;;17.73;;
21014;SDS011;19207;-23.482;-46.500;2023-08-06T13:49:51;30.48;;;18.27;;
21014;SDS011;19207;-23.482;-46.500;2023-08-06T13:52:38;29.87;;;17.92;;
21014;SDS011;19207;-23.482;-46.500;2023-08-06T13:55:25;42.47;;;19.20;;
21014;SDS011;19207;-23.482;-46.500;2023-08-06T13:58:12;33.88;;;17.37;;
21014;SDS011;19207;-23.482;-46.500;2023-08-06T14:00:59;34.67;;;17.15;;
21014;SDS011;19207;-23.482;-46.500;2023-08-06T14:03:46;28.62;;;17.33;;
21014;SDS011;19207;-23.482;-46.500;2023-08-06T14:06:33;37.22;;;17.67;;
21014;SDS011;19207;-23.482;-46.500;2023-08-06T14:09:20;29.52;;;16.27;;
21014;SDS011;19207;-23.482;-46.500;2023-08-06T14:12:07;26.95;;;16.23;;
21014;SDS011;19207;-23.482;-46.500;2023-08-06T14:14:54;28.10;;;15.98;;
21014;SDS011;19207;-23.482;-46.500;2023-08-06T14:17:41;36.45;;;16.75;;
21014;SDS011;19207;-23.482;-46.500;2023-08-06T14:20:28;27.37;;;15.02;;
21014;SDS011;19207;-23.482;-46.500;2023-08-06T14:23:16;25.90;;;14.93;;
21014;SDS011;19207;-23.482;-46.500;2023-08-06T14:26:03;29.17;;;16.37;;
21014;SDS011;19207;-23.482;-46.500;2023-08-06T14:28:51;41.42;;;22.95;;
21014;SDS011;19207;-23.482;-46.500;2023-08-06T14:31:39;41.45;;;23.23;;
21014;SDS011;19207;-23.482;-46.500;2023-08-06T14:34:27;47.45;;;21.67;;
21014;SDS011;19207;-23.482;-46.500;2023-08-06T14:37:14;36.17;;;21.45;;
21014;SDS011;19207;-23.482;-46.500;2023-08-06T14:40:02;37.50;;;21.90;;
21014;SDS011;19207;-23.482;-46.500;2023-08-06T14:42:49;42.67;;;22.55;;
21014;SDS011;19207;-23.482;-46.500;2023-08-06T14:45:39;36.85;;;21.45;;
21014;SDS011;19207;-23.482;-46.500;2023-08-06T14:48:26;49.53;;;23.52;;
21014;SDS011;19207;-23.482;-46.500;2023-08-06T14:51:13;52.58;;;25.58;;
21014;SDS011;19207;-23.482;-46.500;2023-08-06T14:54:00;52.20;;;25.25;;
21014;SDS011;19207;-23.482;-46.500;2023-08-06T14:56:47;47.35;;;25.70;;
21014;SDS011;19207;-23.482;-46.500;2023-08-06T14:59:34;42.03;;;22.35;;
21014;SDS011;19207;-23.482;-46.500;2023-08-06T15:02:21;45.60;;;20.80;;
21014;SDS011;19207;-23.482;-46.500;2023-08-06T15:05:08;36.03;;;20.37;;
21014;SDS011;19207;-23.482;-46.500;2023-08-06T15:07:55;37.35;;;24.02;;
21014;SDS011;19207;-23.482;-46.500;2023-08-06T15:10:43;40.97;;;21.75;;
21014;SDS011;19207;-23.482;-46.500;2023-08-06T15:13:37;35.00;;;19.80;;
21014;SDS011;19207;-23.482;-46.500;2023-08-06T15:16:24;33.22;;;18.85;;
21014;SDS011;19207;-23.482;-46.500;2023-08-06T15:19:11;35.03;;;19.33;;
21014;SDS011;19207;-23.482;-46.500;2023-08-06T15:21:58;33.55;;;19.48;;
21014;SDS011;19207;-23.482;-46.500;2023-08-06T15:24:45;34.50;;;21.17;;
21014;SDS011;19207;-23.482;-46.500;2023-08-06T15:27:32;35.65;;;22.60;;
21014;SDS011;19207;-23.482;-46.500;2023-08-06T15:30:20;32.10;;;19.92;;
21014;SDS011;19207;-23.482;-46.500;2023-08-06T15:33:07;44.08;;;19.90;;
21014;SDS011;19207;-23.482;-46.500;2023-08-06T15:35:54;36.70;;;20.08;;
21014;SDS011;19207;-23.482;-46.500;2023-08-06T15:38:42;37.50;;;20.08;;
21014;SDS011;19207;-23.482;-46.500;2023-08-06T15:41:29;38.65;;;18.12;;
21014;SDS011;19207;-23.482;-46.500;2023-08-06T15:44:16;31.05;;;18.58;;
21014;SDS011;19207;-23.482;-46.500;2023-08-06T15:47:03;36.65;;;20.02;;
21014;SDS011;19207;-23.482;-46.500;2023-08-06T15:49:49;38.30;;;19.98;;